Preview of NWS' New Version of Forecast
This preview is not operational and should not be used for support decisions.

Terminal Aerodrome Forecast (TAF)

Issued by National Weather Service (NWS)

                            
000
FTUS42 KKEY 271218 AAA
TAFEYW
TAF AMD
KEYW 271218Z 2712/2812 18022G30KT P6SM VCSH SCT018 BKN045
      TEMPO 2713/2715 21026G35KT 1/2SM +TSRA FG SCT008 BKN012CB
      OVC035
     FM271500 19020G30KT P6SM VCSH SCT018 BKN045
      TEMPO 2715/2719 22025G35KT 2SM +TSRA SCT008 BKN012CB OVC035
     FM272100 19018G28KT P6SM VCSH SCT020 BKN060=